createdAt,value
2023-04-18T00:00:58.918Z,9.35
2023-04-18T00:03:10.496Z,9.44
2023-04-18T00:05:23.784Z,9.51
2023-04-18T00:07:40.260Z,9.51
2023-04-18T00:09:51.419Z,9.54
2023-04-18T00:12:04.885Z,9.58
2023-04-18T00:14:19.759Z,9.64
2023-04-18T00:16:30.882Z,9.74
2023-04-18T00:18:41.936Z,9.77
2023-04-18T00:20:53.223Z,9.82
2023-04-18T00:23:04.928Z,9.84
2023-04-18T00:25:16.496Z,9.77
2023-04-18T00:27:27.830Z,9.73
2023-04-18T00:29:38.649Z,9.74
2023-04-18T00:31:49.618Z,9.79
2023-04-18T00:34:01.204Z,9.81
2023-04-18T00:36:13.538Z,9.80
2023-04-18T00:38:25.868Z,9.72
2023-04-18T00:40:37.540Z,9.62
2023-04-18T00:42:48.660Z,9.50
2023-04-18T00:44:59.296Z,9.37
2023-04-18T00:47:10.127Z,9.23
2023-04-18T00:49:21.033Z,9.16
2023-04-18T00:51:31.887Z,9.08
2023-04-18T00:53:43.295Z,9.01
2023-04-18T00:55:55.142Z,8.99
2023-04-18T00:58:07.264Z,8.97
2023-04-18T01:00:19.499Z,8.95
2023-04-18T01:02:31.137Z,8.90
2023-04-18T01:04:44.507Z,8.86
2023-04-18T01:06:55.306Z,8.81
2023-04-18T01:09:06.846Z,8.78
2023-04-18T01:11:18.257Z,8.81
2023-04-18T01:13:30.837Z,8.96
2023-04-18T01:15:41.802Z,9.10
2023-04-18T01:17:53.003Z,9.21
2023-04-18T01:20:06.420Z,9.26
2023-04-18T01:22:19.661Z,9.28
2023-04-18T01:24:32.579Z,9.28
2023-04-18T01:26:41.066Z,9.30
2023-04-18T01:28:51.978Z,9.29
2023-04-18T01:31:03.075Z,9.27
2023-04-18T01:33:14.238Z,9.24
2023-04-18T01:35:25.255Z,9.23
2023-04-18T01:37:38.835Z,9.24
2023-04-18T01:39:50.807Z,9.23
2023-04-18T01:42:03.479Z,9.18
2023-04-18T01:44:14.995Z,9.12
2023-04-18T01:46:26.204Z,9.04
2023-04-18T01:48:38.463Z,8.94
2023-04-18T01:50:49.926Z,8.85
2023-04-18T01:53:01.474Z,8.80
2023-04-18T01:55:13.790Z,8.77
2023-04-18T01:57:25.051Z,8.75
2023-04-18T01:59:36.377Z,8.71
2023-04-18T02:01:47.167Z,8.62
2023-04-18T02:03:58.240Z,8.52
2023-04-18T02:06:11.006Z,8.43
2023-04-18T02:08:21.974Z,8.33
2023-04-18T02:10:35.427Z,8.26
2023-04-18T02:12:46.303Z,8.21
2023-04-18T02:14:58.103Z,8.15
2023-04-18T02:17:09.639Z,8.09
2023-04-18T02:19:20.438Z,8.03
2023-04-18T02:21:31.671Z,8.00
2023-04-18T02:23:42.838Z,7.97
2023-04-18T02:25:54.117Z,7.95
2023-04-18T02:28:05.139Z,7.92
2023-04-18T02:30:16.981Z,7.89
2023-04-18T02:32:30.106Z,7.86
2023-04-18T02:34:43.573Z,7.81
2023-04-18T02:36:54.769Z,7.79
2023-04-18T02:39:09.169Z,7.75
2023-04-18T02:41:22.238Z,7.70
2023-04-18T02:43:33.558Z,7.67
2023-04-18T02:45:43.836Z,7.64
2023-04-18T02:47:56.968Z,7.63
2023-04-18T02:50:09.390Z,7.62
2023-04-18T02:52:20.450Z,7.64
2023-04-18T02:54:31.409Z,7.65
2023-04-18T02:56:51.518Z,7.67
2023-04-18T02:59:22.143Z,7.67
2023-04-18T03:02:01.241Z,7.66
2023-04-18T03:04:13.800Z,7.66
2023-04-18T03:06:37.304Z,7.65
2023-04-18T03:08:49.613Z,7.65
2023-04-18T03:11:00.241Z,7.68
2023-04-18T03:13:11.102Z,7.68
2023-04-18T03:15:22.153Z,7.61
2023-04-18T03:17:32.498Z,7.54
2023-04-18T03:19:43.190Z,7.50
2023-04-18T03:21:53.217Z,7.45
2023-04-18T03:24:03.222Z,7.35
2023-04-18T03:26:14.437Z,7.26
2023-04-18T03:28:24.773Z,7.18
2023-04-18T03:30:34.503Z,7.14
2023-04-18T03:32:44.722Z,7.11
2023-04-18T03:34:55.852Z,7.07
2023-04-18T03:37:05.978Z,7.04
2023-04-18T03:39:23.270Z,7.03
2023-04-18T03:41:47.135Z,7.03
2023-04-18T03:43:57.203Z,7.05
2023-04-18T03:46:07.937Z,7.08
2023-04-18T03:48:18.768Z,7.11
2023-04-18T03:50:35.812Z,7.11
2023-04-18T03:52:48.799Z,7.14
2023-04-18T03:54:59.697Z,7.21
2023-04-18T03:57:22.278Z,7.29
2023-04-18T03:59:32.904Z,7.31
2023-04-18T04:01:43.287Z,7.29
2023-04-18T04:03:57.356Z,7.28
2023-04-18T04:06:15.000Z,7.30
2023-04-18T04:08:28.255Z,7.30
2023-04-18T04:10:39.558Z,7.22
2023-04-18T04:12:49.408Z,7.17
2023-04-18T04:15:01.417Z,7.12
2023-04-18T04:17:12.256Z,7.10
2023-04-18T04:19:22.081Z,7.10
2023-04-18T04:21:43.212Z,7.12
2023-04-18T04:23:55.115Z,7.17
2023-04-18T04:26:28.805Z,7.20
2023-04-18T04:28:49.816Z,7.24
2023-04-18T04:31:02.852Z,7.25
2023-04-18T04:33:12.765Z,7.22
2023-04-18T04:35:23.026Z,7.21
2023-04-18T04:37:39.432Z,7.17
2023-04-18T04:40:01.241Z,7.01
2023-04-18T04:42:30.643Z,6.90
2023-04-18T04:44:47.250Z,6.86
2023-04-18T04:47:08.281Z,6.84
2023-04-18T04:49:17.029Z,6.83
2023-04-18T04:51:29.459Z,6.80
2023-04-18T04:53:39.732Z,6.70
2023-04-18T04:55:50.388Z,6.55
2023-04-18T04:58:10.862Z,6.41
2023-04-18T05:00:41.593Z,6.27
2023-04-18T05:02:55.366Z,6.20
2023-04-18T05:05:17.945Z,6.21
2023-04-18T05:07:34.042Z,6.26
2023-04-18T05:09:58.345Z,6.29
2023-04-18T05:12:12.673Z,6.34
2023-04-18T05:14:26.651Z,6.38
2023-04-18T05:16:38.096Z,6.40
2023-04-18T05:18:48.376Z,6.36
2023-04-18T05:21:12.064Z,6.31
2023-04-18T05:23:41.859Z,6.29
2023-04-18T05:25:51.811Z,6.29
2023-04-18T05:28:14.594Z,6.30
2023-04-18T05:30:35.444Z,6.33
2023-04-18T05:32:59.243Z,6.29
2023-04-18T05:35:10.632Z,6.25
2023-04-18T05:37:33.587Z,6.24
2023-04-18T05:39:50.410Z,6.24
2023-04-18T05:42:22.117Z,6.24
2023-04-18T05:44:37.471Z,6.28
2023-04-18T05:46:47.375Z,6.31
2023-04-18T05:48:57.715Z,6.34
2023-04-18T05:51:09.479Z,6.36
2023-04-18T05:53:21.959Z,6.40
2023-04-18T05:55:31.740Z,6.46
2023-04-18T05:57:42.701Z,6.50
2023-04-18T05:59:53.783Z,6.49
2023-04-18T06:02:04.371Z,6.45
2023-04-18T06:04:15.059Z,6.38
2023-04-18T06:06:25.375Z,6.37
2023-04-18T06:08:35.188Z,6.39
2023-04-18T06:10:45.054Z,6.40
2023-04-18T06:12:54.874Z,6.40
2023-04-18T06:15:06.161Z,6.42
2023-04-18T06:17:16.833Z,6.46
2023-04-18T06:19:26.863Z,6.49
2023-04-18T06:21:36.834Z,6.54
2023-04-18T06:23:46.473Z,6.48
2023-04-18T06:25:56.434Z,6.41
2023-04-18T06:28:06.275Z,6.36
2023-04-18T06:30:17.487Z,6.30
2023-04-18T06:32:27.288Z,6.23
2023-04-18T06:34:38.656Z,6.17
2023-04-18T06:36:48.656Z,6.13
2023-04-18T06:38:58.454Z,6.13
2023-04-18T06:41:09.081Z,6.10
2023-04-18T06:43:19.041Z,6.02
2023-04-18T06:45:29.274Z,5.96
2023-04-18T06:47:39.910Z,5.95
2023-04-18T06:49:49.769Z,5.99
2023-04-18T06:51:59.415Z,6.05
2023-04-18T06:54:09.283Z,6.12
2023-04-18T06:56:19.229Z,6.17
2023-04-18T06:58:28.857Z,6.22
2023-04-18T07:00:39.036Z,6.22
2023-04-18T07:02:49.890Z,6.25
2023-04-18T07:04:59.709Z,6.24
2023-04-18T07:07:09.560Z,6.00
2023-04-18T07:09:19.706Z,5.85
2023-04-18T07:11:30.183Z,5.80
2023-04-18T07:13:40.272Z,5.79
2023-04-18T07:15:50.807Z,5.82
2023-04-18T07:18:00.671Z,5.86
2023-04-18T07:20:14.229Z,5.88
2023-04-18T07:22:24.211Z,5.92
2023-04-18T07:24:34.487Z,5.88
2023-04-18T07:26:44.350Z,5.85
2023-04-18T07:28:54.135Z,5.87
2023-04-18T07:31:05.016Z,5.92
2023-04-18T07:33:16.098Z,5.99
2023-04-18T07:35:25.814Z,6.09
2023-04-18T07:37:36.062Z,6.12
2023-04-18T07:39:45.982Z,6.15
2023-04-18T07:41:56.311Z,6.20
2023-04-18T07:44:07.139Z,6.23
2023-04-18T07:46:16.993Z,6.25
2023-04-18T07:48:27.314Z,6.27
2023-04-18T07:50:38.122Z,6.30
2023-04-18T07:52:48.980Z,6.33
2023-04-18T07:54:58.773Z,6.36
2023-04-18T07:57:08.741Z,6.39
2023-04-18T07:59:18.632Z,6.39
2023-04-18T08:01:28.357Z,6.32
2023-04-18T08:03:38.708Z,6.16
2023-04-18T08:05:49.543Z,6.06
2023-04-18T08:07:59.392Z,6.02
2023-04-18T08:10:10.489Z,6.01
2023-04-18T08:12:20.148Z,6.04
2023-04-18T08:14:29.701Z,6.02
2023-04-18T08:16:39.706Z,6.01
2023-04-18T08:18:49.551Z,5.99
2023-04-18T08:20:59.604Z,5.99
2023-04-18T08:23:12.102Z,6.03
2023-04-18T08:25:23.563Z,6.08
2023-04-18T08:27:33.991Z,6.13
2023-04-18T08:29:44.483Z,6.18
2023-04-18T08:31:54.627Z,6.21
2023-04-18T08:34:05.190Z,6.25
2023-04-18T08:36:16.888Z,6.29
2023-04-18T08:38:26.480Z,6.31
2023-04-18T08:40:36.463Z,6.34
2023-04-18T08:42:47.652Z,6.35
2023-04-18T08:44:58.579Z,6.38
2023-04-18T08:47:09.857Z,6.40
2023-04-18T08:49:22.078Z,6.45
2023-04-18T09:02:45.860Z,6.97
2023-04-18T09:05:22.796Z,6.92
2023-04-18T09:07:58.249Z,6.70
2023-04-18T09:10:37.688Z,6.54
2023-04-18T09:13:11.147Z,6.39
2023-04-18T09:15:46.708Z,6.29
2023-04-18T09:18:20.337Z,6.23
2023-04-18T09:20:56.147Z,6.24
2023-04-18T09:23:30.189Z,6.26
2023-04-18T09:26:08.740Z,6.31
2023-04-18T09:28:43.550Z,6.36
2023-04-18T09:31:17.220Z,6.40
2023-04-18T09:33:58.130Z,6.43
2023-04-18T09:36:35.607Z,6.46
2023-04-18T09:39:09.159Z,6.49
2023-04-18T09:41:43.181Z,6.52
2023-04-18T09:44:18.810Z,6.58
2023-04-18T09:46:54.426Z,6.60
2023-04-18T09:49:29.044Z,6.62
2023-04-18T09:52:02.683Z,6.65
2023-04-18T09:54:41.860Z,6.67
2023-04-18T09:57:18.454Z,6.63
2023-04-18T09:59:58.650Z,6.58
2023-04-18T10:02:38.294Z,6.57
2023-04-18T10:05:13.852Z,6.56
2023-04-18T10:07:49.588Z,6.58
2023-04-18T10:10:23.713Z,6.59
2023-04-18T10:13:05.079Z,6.53
2023-04-18T10:15:40.372Z,6.41
2023-04-18T10:18:18.388Z,6.35
2023-04-18T10:20:52.828Z,6.34
2023-04-18T10:23:53.641Z,6.36
2023-04-18T10:26:48.201Z,6.38
2023-04-18T10:29:28.612Z,6.43
2023-04-18T10:32:09.558Z,6.46
2023-04-18T10:34:44.605Z,6.46
2023-04-18T10:37:20.047Z,6.46
2023-04-18T10:40:07.966Z,6.49
2023-04-18T10:43:08.121Z,6.48
2023-04-18T10:45:43.748Z,6.46
2023-04-18T10:48:33.760Z,6.49
2023-04-18T10:51:22.004Z,6.51
2023-04-18T10:54:01.663Z,6.49
2023-04-18T10:56:36.911Z,6.47
2023-04-18T10:59:13.881Z,6.48
2023-04-18T11:01:40.561Z,6.48
2023-04-18T11:04:20.503Z,6.50
2023-04-18T11:06:58.763Z,6.52
2023-04-18T11:09:33.011Z,6.52
2023-04-18T11:12:14.569Z,6.51
2023-04-18T11:14:51.172Z,6.49
2023-04-18T11:17:26.762Z,6.48
2023-04-18T11:20:10.278Z,6.41
2023-04-18T11:22:55.109Z,6.31
2023-04-18T11:25:33.016Z,6.19
2023-04-18T11:28:08.123Z,6.06
2023-04-18T11:30:45.925Z,5.95
2023-04-18T11:33:21.201Z,5.85
2023-04-18T11:36:00.411Z,5.82
2023-04-18T11:38:37.673Z,5.79
2023-04-18T11:41:15.372Z,5.75
2023-04-18T11:43:51.962Z,5.71
2023-04-18T11:46:26.927Z,5.71
2023-04-18T11:49:01.949Z,5.74
2023-04-18T11:51:47.304Z,5.77
2023-04-18T11:54:43.329Z,5.82
2023-04-18T11:57:29.314Z,5.86
2023-04-18T12:00:03.941Z,5.89
2023-04-18T12:02:46.757Z,5.93
2023-04-18T12:05:31.278Z,5.97
2023-04-18T12:08:12.492Z,6.01
2023-04-18T12:10:52.062Z,6.04
2023-04-18T12:13:34.561Z,6.08
2023-04-18T12:16:09.852Z,6.10
2023-04-18T12:18:44.959Z,6.13
2023-04-18T12:21:19.731Z,6.14
2023-04-18T12:23:59.714Z,6.19
2023-04-18T12:26:34.226Z,6.23
2023-04-18T12:29:08.011Z,6.24
2023-04-18T12:31:43.293Z,6.26
2023-04-18T12:34:18.348Z,6.29
2023-04-18T12:36:53.443Z,6.31
2023-04-18T12:39:27.158Z,6.34
2023-04-18T12:42:03.509Z,6.34
2023-04-18T12:44:38.245Z,6.33
2023-04-18T12:47:12.065Z,6.34
2023-04-18T12:49:45.965Z,6.34
2023-04-18T12:52:19.237Z,6.30
2023-04-18T12:54:53.856Z,6.27
2023-04-18T12:57:31.659Z,6.24
2023-04-18T13:00:07.760Z,6.22
2023-04-18T13:02:42.558Z,6.21
2023-04-18T13:05:19.768Z,6.22
2023-04-18T13:08:08.511Z,6.24
2023-04-18T13:10:51.284Z,6.27
2023-04-18T13:13:25.262Z,6.28
2023-04-18T13:15:51.712Z,6.25
2023-04-18T13:18:26.891Z,6.19
2023-04-18T13:21:01.105Z,6.14
2023-04-18T13:23:37.650Z,6.10
2023-04-18T13:26:11.596Z,6.08
2023-04-18T13:28:46.564Z,6.08
2023-04-18T13:31:21.674Z,6.09
2023-04-18T13:33:56.988Z,6.09
2023-04-18T13:36:32.751Z,6.12
2023-04-18T13:39:08.078Z,6.17
2023-04-18T13:41:41.864Z,6.16
2023-04-18T13:44:17.763Z,6.07
2023-04-18T13:46:53.139Z,5.97
2023-04-18T13:49:27.551Z,5.86
2023-04-18T13:52:02.243Z,5.79
2023-04-18T13:54:38.141Z,5.74
2023-04-18T13:57:14.658Z,5.72
2023-04-18T13:59:52.666Z,5.73
2023-04-18T14:02:27.338Z,5.70
2023-04-18T14:05:02.200Z,5.66
2023-04-18T14:07:36.276Z,5.58
2023-04-18T14:10:12.352Z,5.50
2023-04-18T14:12:46.918Z,5.45
2023-04-18T14:15:21.244Z,5.43
2023-04-18T14:17:55.484Z,5.49
2023-04-18T14:20:35.482Z,5.56
2023-04-18T14:23:11.465Z,5.66
2023-04-18T14:25:46.349Z,5.76
2023-04-18T14:28:23.162Z,5.88
2023-04-18T14:30:58.908Z,5.96
2023-04-18T14:33:33.252Z,6.01
2023-04-18T14:36:12.360Z,6.03
2023-04-18T14:38:46.112Z,6.02
2023-04-18T14:41:19.887Z,6.02
2023-04-18T14:43:55.172Z,6.01
2023-04-18T14:46:30.415Z,6.01
2023-04-18T14:49:04.220Z,6.07
2023-04-18T14:51:38.282Z,6.17
2023-04-18T14:54:12.478Z,6.27
2023-04-18T14:56:46.924Z,6.34
2023-04-18T14:59:22.660Z,6.40
2023-04-18T15:01:56.324Z,6.42
2023-04-18T15:04:31.911Z,6.51
2023-04-18T15:07:06.549Z,6.59
2023-04-18T15:09:44.472Z,6.65
2023-04-18T15:12:18.127Z,6.69
2023-04-18T15:14:52.828Z,6.65
2023-04-18T15:17:27.082Z,6.53
2023-04-18T15:20:01.637Z,6.39
2023-04-18T15:22:34.992Z,6.27
2023-04-18T15:25:18.407Z,6.20
2023-04-18T15:27:49.858Z,6.18
2023-04-18T15:30:25.804Z,6.21
2023-04-18T15:32:59.968Z,6.23
2023-04-18T15:35:33.823Z,6.27
2023-04-18T15:37:57.795Z,6.31
2023-04-18T15:40:34.295Z,6.36
2023-04-18T15:43:08.460Z,6.42
2023-04-18T15:45:43.621Z,6.50
2023-04-18T15:48:18.312Z,6.55
2023-04-18T15:50:59.713Z,6.61
2023-04-18T15:53:35.012Z,6.67
2023-04-18T15:56:08.953Z,6.75
2023-04-18T15:58:43.019Z,6.85
2023-04-18T16:01:21.707Z,6.97
2023-04-18T16:03:56.761Z,7.11
2023-04-18T16:06:32.573Z,7.27
2023-04-18T16:09:08.394Z,7.50
2023-04-18T16:11:43.233Z,7.66
2023-04-18T16:14:17.920Z,7.79
2023-04-18T16:16:54.840Z,7.88
2023-04-18T16:19:29.895Z,7.82
2023-04-18T16:22:04.163Z,7.71
2023-04-18T16:24:41.544Z,7.49
2023-04-18T16:27:16.178Z,7.30
2023-04-18T16:29:52.438Z,7.16
2023-04-18T16:32:28.630Z,7.06
2023-04-18T16:35:02.300Z,7.04
2023-04-18T16:37:39.341Z,7.08
2023-04-18T16:40:16.428Z,7.06
2023-04-18T16:45:36.327Z,7.08
2023-04-18T16:48:12.556Z,7.09
2023-04-18T16:50:47.749Z,7.09
2023-04-18T16:53:21.568Z,7.06
2023-04-18T16:55:57.075Z,7.03
2023-04-18T16:58:32.119Z,7.01
2023-04-18T17:01:09.193Z,7.00
2023-04-18T17:03:45.021Z,6.98
2023-04-18T17:06:20.914Z,6.97
2023-04-18T17:08:55.635Z,7.01
2023-04-18T17:11:33.210Z,6.99
2023-04-18T17:14:08.882Z,6.92
2023-04-18T17:16:45.540Z,6.92
2023-04-18T17:19:20.344Z,6.97
2023-04-18T17:21:55.873Z,7.08
2023-04-18T17:24:32.288Z,7.14
2023-04-18T17:27:09.931Z,7.22
2023-04-18T17:29:44.912Z,7.46
2023-04-18T17:32:22.450Z,7.75
2023-04-18T17:34:57.283Z,7.82
2023-04-18T17:37:32.434Z,7.73
2023-04-18T17:40:10.867Z,7.64
2023-04-18T17:42:45.519Z,7.59
2023-04-18T17:45:19.247Z,7.70
2023-04-18T17:47:55.890Z,7.97
2023-04-18T17:50:29.463Z,8.10
2023-04-18T17:53:04.090Z,8.11
2023-04-18T17:55:37.766Z,8.08
2023-04-18T17:58:12.623Z,8.08
2023-04-18T18:00:46.856Z,8.06
2023-04-18T18:03:22.692Z,8.26
2023-04-18T18:05:57.799Z,8.41
2023-04-18T18:08:33.470Z,8.51
2023-04-18T18:11:09.411Z,8.63
2023-04-18T18:13:32.860Z,8.77
2023-04-18T18:16:08.385Z,8.90
2023-04-18T18:18:42.668Z,8.96
2023-04-18T18:21:15.781Z,9.04
2023-04-18T18:23:50.131Z,9.11
2023-04-18T18:26:24.801Z,9.20
2023-04-18T18:28:59.300Z,9.19
2023-04-18T18:31:34.433Z,9.05
2023-04-18T18:34:09.367Z,8.84
2023-04-18T18:36:43.232Z,8.63
2023-04-18T18:39:17.468Z,8.44
2023-04-18T18:41:51.990Z,8.27
2023-04-18T18:44:26.194Z,8.17
2023-04-18T18:47:00.730Z,8.15
2023-04-18T18:52:21.726Z,7.73
2023-04-18T18:54:54.950Z,7.48
2023-04-18T18:57:28.760Z,7.31
2023-04-18T19:00:03.173Z,7.22
2023-04-18T19:02:37.034Z,7.12
2023-04-18T19:05:11.838Z,7.02
2023-04-18T19:07:45.718Z,6.97
2023-04-18T19:10:19.263Z,6.93
2023-04-18T19:12:53.970Z,6.86
2023-04-18T19:15:28.003Z,6.74
2023-04-18T19:18:02.652Z,6.70
2023-04-18T19:20:39.867Z,6.70
2023-04-18T19:23:14.164Z,6.68
2023-04-18T19:25:48.587Z,6.64
2023-04-18T19:28:23.720Z,6.61
2023-04-18T19:30:58.451Z,6.61
2023-04-18T19:33:33.661Z,6.65
2023-04-18T19:36:09.240Z,6.73
2023-04-18T19:38:42.851Z,6.77
2023-04-18T19:41:17.315Z,6.81
2023-04-18T19:43:53.362Z,6.87
2023-04-18T19:46:27.473Z,6.91
2023-04-18T19:49:01.822Z,6.86
2023-04-18T19:51:36.957Z,6.84
2023-04-18T19:54:10.932Z,6.82
2023-04-18T19:56:35.606Z,6.78
2023-04-18T19:59:12.907Z,6.63
2023-04-18T20:01:48.720Z,6.46
2023-04-18T20:04:23.313Z,6.34
2023-04-18T20:06:58.678Z,6.23
2023-04-18T20:09:33.240Z,6.09
2023-04-18T20:12:06.376Z,5.94
2023-04-18T20:14:41.032Z,5.81
2023-04-18T20:17:14.329Z,5.65
2023-04-18T20:19:48.239Z,5.50
2023-04-18T20:22:21.827Z,5.42
2023-04-18T20:24:58.189Z,5.42
2023-04-18T20:27:33.973Z,5.46
2023-04-18T20:30:09.610Z,5.53
2023-04-18T20:32:45.313Z,5.62
2023-04-18T20:35:24.341Z,5.69
2023-04-18T20:38:01.360Z,5.66
2023-04-18T20:40:37.140Z,5.66
2023-04-18T20:43:11.362Z,5.65
2023-04-18T20:45:48.325Z,5.62
2023-04-18T20:48:23.137Z,5.61
2023-04-18T20:50:57.068Z,5.62
2023-04-18T20:53:30.976Z,5.56
2023-04-18T20:56:07.470Z,5.53
2023-04-18T20:58:40.498Z,5.53
2023-04-18T21:01:11.547Z,5.53
2023-04-18T21:03:47.348Z,5.53
2023-04-18T21:06:23.218Z,5.50
2023-04-18T21:08:56.772Z,5.47
2023-04-18T21:11:30.541Z,5.32
2023-04-18T21:14:04.907Z,5.15
2023-04-18T21:16:40.478Z,4.99
2023-04-18T21:19:13.977Z,5.02
2023-04-18T21:21:47.350Z,5.14
2023-04-18T21:24:21.088Z,5.27
2023-04-18T21:26:44.246Z,5.39
2023-04-18T21:29:18.749Z,5.48
2023-04-18T21:31:42.825Z,5.50
2023-04-18T21:33:59.493Z,5.47
2023-04-18T21:36:22.429Z,5.41
2023-04-18T21:38:57.593Z,5.19
2023-04-18T21:41:13.730Z,5.06
2023-04-18T21:43:47.300Z,4.98
2023-04-18T21:46:22.051Z,4.95
2023-04-18T21:48:42.466Z,4.93
2023-04-18T21:51:05.795Z,5.02
2023-04-18T21:53:29.238Z,5.13
2023-04-18T21:56:02.909Z,5.26
2023-04-18T21:58:29.697Z,5.37
2023-04-18T22:00:46.218Z,5.46
2023-04-18T22:05:36.248Z,5.70
2023-04-18T22:07:58.055Z,5.85
2023-04-18T22:10:17.764Z,5.94
2023-04-18T22:12:43.556Z,6.04
2023-04-18T22:14:59.929Z,6.12
2023-04-18T22:17:16.017Z,6.24
2023-04-18T22:19:30.704Z,6.45
2023-04-18T22:22:04.805Z,6.76
2023-04-18T22:24:19.483Z,7.00
2023-04-18T22:26:43.019Z,7.26
2023-04-18T22:29:17.357Z,7.43
2023-04-18T22:31:52.014Z,7.44
2023-04-18T22:34:10.768Z,7.51
2023-04-18T22:36:34.140Z,7.54
2023-04-18T22:39:08.581Z,7.56
2023-04-18T22:41:41.471Z,7.57
2023-04-18T22:44:15.587Z,7.61
2023-04-18T22:46:49.235Z,7.67
2023-04-18T22:49:23.284Z,7.70
2023-04-18T22:51:56.984Z,7.70
2023-04-18T22:54:34.518Z,7.73
2023-04-18T22:57:08.270Z,7.75
2023-04-18T22:59:42.248Z,7.76
2023-04-18T23:02:16.353Z,7.75
2023-04-18T23:04:50.695Z,7.75
2023-04-18T23:07:14.336Z,7.71
2023-04-18T23:09:48.612Z,7.69
2023-04-18T23:12:22.472Z,7.65
2023-04-18T23:14:56.442Z,7.60
2023-04-18T23:17:30.434Z,7.52
2023-04-18T23:20:05.745Z,7.36
2023-04-18T23:22:40.884Z,7.12
2023-04-18T23:25:16.098Z,6.84
2023-04-18T23:27:50.152Z,6.58
2023-04-18T23:30:25.417Z,6.41
2023-04-18T23:32:58.726Z,6.28
2023-04-18T23:35:34.530Z,6.24
2023-04-18T23:38:09.275Z,6.25
2023-04-18T23:43:30.616Z,6.21
2023-04-18T23:46:04.654Z,6.19
2023-04-18T23:51:25.759Z,6.11
2023-04-18T23:53:59.725Z,6.09
2023-04-18T23:56:33.850Z,6.07
2023-04-18T23:59:08.730Z,6.13
